createdAt,value
2023-05-17T00:01:49.895Z,4.03
2023-05-17T00:04:17.952Z,3.63
2023-05-17T00:06:46.304Z,4.00
2023-05-17T00:09:14.186Z,3.87
2023-05-17T00:11:42.137Z,3.40
2023-05-17T00:14:10.462Z,3.37
2023-05-17T00:16:38.440Z,3.33
2023-05-17T00:19:09.532Z,3.53
2023-05-17T00:21:37.996Z,3.60
2023-05-17T00:24:06.618Z,3.50
2023-05-17T00:26:34.722Z,3.60
2023-05-17T00:29:02.617Z,3.07
2023-05-17T00:31:30.573Z,4.13
2023-05-17T00:33:58.416Z,4.00
2023-05-17T00:36:27.677Z,4.20
2023-05-17T00:38:55.567Z,4.07
2023-05-17T00:41:23.400Z,3.40
2023-05-17T00:43:51.824Z,3.97
2023-05-17T00:46:19.694Z,3.97
2023-05-17T00:48:48.987Z,3.87
2023-05-17T00:51:20.170Z,4.00
2023-05-17T00:53:50.118Z,3.77
2023-05-17T00:56:18.380Z,3.90
2023-05-17T00:58:46.485Z,3.53
2023-05-17T01:01:14.481Z,3.80
2023-05-17T01:03:43.140Z,3.70
2023-05-17T01:06:11.739Z,3.23
2023-05-17T01:08:39.673Z,3.60
2023-05-17T01:11:19.759Z,3.43
2023-05-17T01:13:56.437Z,3.13
2023-05-17T01:16:30.934Z,3.60
2023-05-17T01:19:08.841Z,3.63
2023-05-17T01:21:48.936Z,3.43
2023-05-17T01:24:27.062Z,3.20
2023-05-17T01:26:57.672Z,4.00
2023-05-17T01:29:27.961Z,3.13
2023-05-17T01:31:57.339Z,4.50
2023-05-17T01:34:28.580Z,3.60
2023-05-17T01:36:57.546Z,3.83
2023-05-17T01:39:25.821Z,4.20
2023-05-17T01:42:02.200Z,3.70
2023-05-17T01:44:38.857Z,3.47
2023-05-17T01:47:14.342Z,3.90
2023-05-17T01:49:47.878Z,3.80
2023-05-17T01:52:23.615Z,3.67
2023-05-17T01:54:55.804Z,4.40
2023-05-17T01:57:30.836Z,3.80
2023-05-17T02:00:02.887Z,3.83
2023-05-17T02:02:31.558Z,3.53
2023-05-17T02:04:59.546Z,3.83
2023-05-17T02:07:27.471Z,3.10
2023-05-17T02:09:55.303Z,3.80
2023-05-17T02:12:25.341Z,3.63
2023-05-17T02:14:53.160Z,4.90
2023-05-17T02:17:21.033Z,3.90
2023-05-17T02:19:48.958Z,3.43
2023-05-17T02:22:16.828Z,3.90
2023-05-17T02:24:45.071Z,4.00
2023-05-17T02:27:13.222Z,3.47
2023-05-17T02:29:42.725Z,4.43
2023-05-17T02:32:11.061Z,4.07
2023-05-17T02:34:39.071Z,4.03
2023-05-17T02:37:06.916Z,3.47
2023-05-17T02:39:34.913Z,4.27
2023-05-17T02:42:02.800Z,3.73
2023-05-17T02:44:30.608Z,4.00
2023-05-17T02:46:59.867Z,4.33
2023-05-17T02:49:27.782Z,3.70
2023-05-17T02:51:56.064Z,4.00
2023-05-17T02:54:23.966Z,4.30
2023-05-17T02:56:51.905Z,4.23
2023-05-17T02:59:19.831Z,4.20
2023-05-17T03:01:48.824Z,4.20
2023-05-17T03:04:20.220Z,3.90
2023-05-17T03:06:48.500Z,4.67
2023-05-17T03:09:16.399Z,4.23
2023-05-17T03:11:44.239Z,4.30
2023-05-17T03:14:12.160Z,4.40
2023-05-17T03:16:40.050Z,4.63
2023-05-17T03:19:08.128Z,3.57
2023-05-17T03:21:37.454Z,4.87
2023-05-17T03:24:05.711Z,4.37
2023-05-17T03:26:33.553Z,4.00
2023-05-17T03:29:01.491Z,5.13
2023-05-17T03:31:29.567Z,4.33
2023-05-17T03:33:57.466Z,4.03
2023-05-17T03:36:25.446Z,4.43
2023-05-17T03:38:54.631Z,4.17
2023-05-17T03:41:22.483Z,3.57
2023-05-17T03:43:50.647Z,4.37
2023-05-17T03:46:18.518Z,4.67
2023-05-17T03:48:46.387Z,3.60
2023-05-17T03:51:14.453Z,3.10
2023-05-17T03:53:43.539Z,4.10
2023-05-17T03:56:13.108Z,3.90
2023-05-17T03:58:40.940Z,4.10
2023-05-17T04:01:08.762Z,4.37
2023-05-17T04:03:37.430Z,4.40
2023-05-17T04:06:07.239Z,4.07
2023-05-17T04:08:35.721Z,3.67
2023-05-17T04:11:10.788Z,4.03
2023-05-17T04:13:40.620Z,3.47
2023-05-17T04:16:09.122Z,3.77
2023-05-17T04:18:38.468Z,3.50
2023-05-17T04:21:07.157Z,4.83
2023-05-17T04:23:35.863Z,4.40
2023-05-17T04:26:04.663Z,4.10
2023-05-17T04:28:34.796Z,4.00
2023-05-17T04:31:08.109Z,3.77
2023-05-17T04:33:36.620Z,3.60
2023-05-17T04:36:05.018Z,3.90
2023-05-17T04:38:32.861Z,3.80
2023-05-17T04:41:04.500Z,3.50
2023-05-17T04:43:32.901Z,3.77
2023-05-17T04:46:01.702Z,3.30
2023-05-17T04:48:32.769Z,3.70
2023-05-17T04:51:04.002Z,3.83
2023-05-17T04:53:32.392Z,3.83
2023-05-17T04:56:00.494Z,3.50
2023-05-17T04:58:28.334Z,3.93
2023-05-17T05:00:56.223Z,3.57
2023-05-17T05:03:24.434Z,3.27
2023-05-17T05:05:53.705Z,3.10
2023-05-17T05:08:21.603Z,2.93
2023-05-17T05:10:51.336Z,3.17
2023-05-17T05:13:19.195Z,3.30
2023-05-17T05:15:47.128Z,3.97
2023-05-17T05:18:15.397Z,2.87
2023-05-17T05:20:45.622Z,2.90
2023-05-17T05:23:14.870Z,2.40
2023-05-17T05:25:44.370Z,2.90
2023-05-17T05:28:12.742Z,3.87
2023-05-17T05:30:41.007Z,3.00
2023-05-17T05:33:09.073Z,2.83
2023-05-17T05:35:37.069Z,2.50
2023-05-17T05:38:05.236Z,3.33
2023-05-17T05:40:34.512Z,2.97
2023-05-17T05:43:02.548Z,2.97
2023-05-17T05:45:30.378Z,2.77
2023-05-17T05:47:58.337Z,3.63
2023-05-17T05:50:26.300Z,2.87
2023-05-17T05:53:00.152Z,2.87
2023-05-17T05:55:36.364Z,3.53
2023-05-17T05:58:04.183Z,2.73
2023-05-17T06:00:32.232Z,3.03
2023-05-17T06:03:00.308Z,2.67
2023-05-17T06:05:29.423Z,2.67
2023-05-17T06:07:57.452Z,2.57
2023-05-17T06:10:25.777Z,3.17
2023-05-17T06:12:55.058Z,2.63
2023-05-17T06:15:22.926Z,3.27
2023-05-17T06:17:52.446Z,3.37
2023-05-17T06:20:20.577Z,2.97
2023-05-17T06:22:48.757Z,2.40
2023-05-17T06:25:16.661Z,3.40
2023-05-17T06:27:44.737Z,3.33
2023-05-17T06:30:15.125Z,3.00
2023-05-17T06:32:43.434Z,2.40
2023-05-17T06:35:12.103Z,2.67
2023-05-17T06:37:39.964Z,2.58
2023-05-17T06:40:16.635Z,3.08
2023-05-17T06:42:45.012Z,2.58
2023-05-17T06:45:14.620Z,3.13
2023-05-17T06:47:43.627Z,2.30
2023-05-17T06:50:11.915Z,2.55
2023-05-17T06:52:39.917Z,2.55
2023-05-17T06:55:09.238Z,2.42
2023-05-17T06:57:37.945Z,2.05
2023-05-17T07:00:10.951Z,2.22
2023-05-17T07:02:40.391Z,2.05
2023-05-17T07:05:09.012Z,1.95
2023-05-17T07:07:37.095Z,1.83
2023-05-17T07:10:05.737Z,2.40
2023-05-17T07:12:34.765Z,1.95
2023-05-17T07:15:03.030Z,2.22
2023-05-17T07:17:30.873Z,1.92
2023-05-17T07:20:00.295Z,1.58
2023-05-17T07:22:28.256Z,1.85
2023-05-17T07:24:56.176Z,2.45
2023-05-17T07:27:24.028Z,1.80
2023-05-17T07:29:51.944Z,1.80
2023-05-17T07:32:19.758Z,1.95
2023-05-17T07:34:47.888Z,2.25
2023-05-17T07:37:17.218Z,2.00
2023-05-17T07:39:45.291Z,2.22
2023-05-17T07:42:13.344Z,2.15
2023-05-17T07:44:41.240Z,2.17
2023-05-17T07:47:09.166Z,1.83
2023-05-17T07:49:38.477Z,1.77
2023-05-17T07:52:06.861Z,1.95
2023-05-17T07:54:36.529Z,1.20
2023-05-17T07:57:04.727Z,1.73
2023-05-17T07:59:32.599Z,1.70
2023-05-17T08:02:00.556Z,2.35
2023-05-17T08:04:28.483Z,1.42
2023-05-17T08:06:56.439Z,1.60
2023-05-17T08:09:24.360Z,2.08
2023-05-17T08:11:53.625Z,2.28
2023-05-17T08:14:27.011Z,2.08
2023-05-17T08:16:55.010Z,1.67
2023-05-17T08:19:23.053Z,1.85
2023-05-17T08:21:51.639Z,1.55
2023-05-17T08:24:19.682Z,2.25
2023-05-17T08:26:47.949Z,1.90
2023-05-17T08:29:17.150Z,1.60
2023-05-17T08:31:45.636Z,1.80
2023-05-17T08:34:13.684Z,1.50
2023-05-17T08:36:42.456Z,1.90
2023-05-17T08:39:10.629Z,1.98
2023-05-17T08:41:38.701Z,2.33
2023-05-17T08:44:07.148Z,1.58
2023-05-17T08:46:38.499Z,1.70
2023-05-17T08:49:08.176Z,1.88
2023-05-17T08:51:39.468Z,1.70
2023-05-17T08:54:08.325Z,1.38
2023-05-17T08:56:40.199Z,1.88
2023-05-17T08:59:10.656Z,1.50
2023-05-17T09:01:42.223Z,1.10
2023-05-17T09:04:10.723Z,2.55
2023-05-17T09:06:38.801Z,2.83
2023-05-17T09:09:11.753Z,7.53
2023-05-17T09:11:39.838Z,2.30
2023-05-17T09:14:08.304Z,1.80
2023-05-17T09:16:43.592Z,1.40
2023-05-17T09:19:18.032Z,1.52
2023-05-17T09:21:49.278Z,1.75
2023-05-17T09:24:20.450Z,1.80
2023-05-17T09:26:48.868Z,1.80
2023-05-17T09:29:18.017Z,1.80
2023-05-17T09:31:47.620Z,1.80
2023-05-17T09:34:19.861Z,1.90
2023-05-17T09:36:48.982Z,2.00
2023-05-17T09:39:17.278Z,1.83
2023-05-17T09:41:48.371Z,1.40
2023-05-17T09:44:17.284Z,1.92
2023-05-17T09:46:49.595Z,1.48
2023-05-17T09:49:18.863Z,1.55
2023-05-17T09:51:48.814Z,1.30
2023-05-17T09:54:17.620Z,1.58
2023-05-17T09:56:46.835Z,1.45
2023-05-17T09:59:16.136Z,1.60
2023-05-17T10:01:46.141Z,1.52
2023-05-17T10:04:20.597Z,1.23
2023-05-17T10:06:52.391Z,1.52
2023-05-17T10:09:25.472Z,1.67
2023-05-17T10:11:56.424Z,1.17
2023-05-17T10:14:28.342Z,1.10
2023-05-17T10:16:57.091Z,1.33
2023-05-17T10:19:26.861Z,1.08
2023-05-17T10:21:58.706Z,1.40
2023-05-17T10:24:32.369Z,1.67
2023-05-17T10:27:01.103Z,1.77
2023-05-17T10:29:31.381Z,2.03
2023-05-17T10:31:59.972Z,1.77
2023-05-17T10:34:30.916Z,1.85
2023-05-17T10:37:00.392Z,1.45
2023-05-17T10:39:29.151Z,1.77
2023-05-17T10:42:13.769Z,1.40
2023-05-17T10:44:43.664Z,1.38
2023-05-17T10:47:12.685Z,1.73
2023-05-17T10:49:47.986Z,2.00
2023-05-17T10:52:19.383Z,1.45
2023-05-17T10:54:50.927Z,1.50
2023-05-17T10:57:21.419Z,1.50
2023-05-17T11:00:00.387Z,1.85
2023-05-17T11:02:29.242Z,1.33
2023-05-17T11:05:00.337Z,1.55
2023-05-17T11:07:32.055Z,1.40
2023-05-17T11:10:12.111Z,1.50
2023-05-17T11:12:42.112Z,1.38
2023-05-17T11:15:11.776Z,1.40
2023-05-17T11:17:57.021Z,1.45
2023-05-17T11:20:34.948Z,2.38
2023-05-17T11:23:06.048Z,1.55
2023-05-17T11:25:36.163Z,1.80
2023-05-17T11:28:08.913Z,1.83
2023-05-17T11:30:43.338Z,1.67
2023-05-17T11:33:24.853Z,2.05
2023-05-17T11:36:04.760Z,1.35
2023-05-17T11:38:33.066Z,2.03
2023-05-17T11:41:26.475Z,1.73
2023-05-17T11:43:55.313Z,1.30
2023-05-17T11:46:24.751Z,1.50
2023-05-17T11:48:53.798Z,1.63
2023-05-17T11:51:25.150Z,1.92
2023-05-17T11:53:56.066Z,1.63
2023-05-17T11:56:35.647Z,2.10
2023-05-17T11:59:10.686Z,1.90
2023-05-17T12:01:46.342Z,1.80
2023-05-17T12:04:14.597Z,1.95
2023-05-17T12:06:45.887Z,1.75
2023-05-17T12:09:17.724Z,1.52
2023-05-17T12:11:46.220Z,1.90
2023-05-17T12:14:17.284Z,1.92
2023-05-17T12:16:46.281Z,1.38
2023-05-17T12:19:21.196Z,2.00
2023-05-17T12:21:51.193Z,2.00
2023-05-17T12:24:19.605Z,1.60
2023-05-17T12:26:48.872Z,1.90
2023-05-17T12:29:22.740Z,1.83
2023-05-17T12:31:53.142Z,1.52
2023-05-17T12:34:21.213Z,1.90
2023-05-17T12:36:52.676Z,1.83
2023-05-17T12:39:23.809Z,1.80
2023-05-17T12:41:52.570Z,1.70
2023-05-17T12:44:21.334Z,1.50
2023-05-17T12:46:53.684Z,1.88
2023-05-17T12:49:22.508Z,1.63
2023-05-17T12:51:51.996Z,1.48
2023-05-17T12:54:29.910Z,2.00
2023-05-17T12:56:58.110Z,1.67
2023-05-17T12:59:26.483Z,1.88
2023-05-17T13:01:56.989Z,2.08
2023-05-17T13:04:31.864Z,1.52
2023-05-17T13:07:02.930Z,2.03
2023-05-17T13:09:32.400Z,1.52
2023-05-17T13:12:01.872Z,2.00
2023-05-17T13:14:37.508Z,1.65
2023-05-17T13:17:06.862Z,1.80
2023-05-17T13:19:35.920Z,1.65
2023-05-17T13:22:05.845Z,1.80
2023-05-17T13:24:35.795Z,1.83
2023-05-17T13:27:04.696Z,1.98
2023-05-17T13:29:39.680Z,2.13
2023-05-17T13:32:09.144Z,1.70
2023-05-17T13:34:37.310Z,1.77
2023-05-17T13:37:11.184Z,1.60
2023-05-17T13:39:40.345Z,2.47
2023-05-17T13:42:08.326Z,1.65
2023-05-17T13:44:36.211Z,1.90
2023-05-17T13:47:04.180Z,1.90
2023-05-17T13:49:32.067Z,2.15
2023-05-17T13:52:00.583Z,2.05
2023-05-17T13:54:29.861Z,2.00
2023-05-17T13:56:57.824Z,1.73
2023-05-17T13:59:26.177Z,2.00
2023-05-17T14:01:54.107Z,1.85
2023-05-17T14:04:22.580Z,2.15
2023-05-17T14:06:54.093Z,1.55
2023-05-17T14:09:22.971Z,1.80
2023-05-17T14:11:52.334Z,1.77
2023-05-17T14:14:20.727Z,1.88
2023-05-17T14:16:48.958Z,2.53
2023-05-17T14:19:17.227Z,1.63
2023-05-17T14:21:45.415Z,1.63
2023-05-17T14:24:13.403Z,1.75
2023-05-17T14:26:41.812Z,2.65
2023-05-17T14:29:10.993Z,1.63
2023-05-17T14:31:38.879Z,2.05
2023-05-17T14:34:07.029Z,1.73
2023-05-17T14:36:36.402Z,1.75
2023-05-17T14:39:05.417Z,1.92
2023-05-17T14:41:33.341Z,1.85
2023-05-17T14:44:01.309Z,2.33
2023-05-17T14:46:30.601Z,1.73
2023-05-17T14:48:58.583Z,1.90
2023-05-17T14:51:26.914Z,1.77
2023-05-17T14:53:54.775Z,1.70
2023-05-17T14:56:22.793Z,1.77
2023-05-17T14:58:51.131Z,2.22
2023-05-17T15:01:19.465Z,2.25
2023-05-17T15:03:49.121Z,2.05
2023-05-17T15:06:17.237Z,2.97
2023-05-17T15:08:45.109Z,1.90
2023-05-17T15:11:13.747Z,1.73
2023-05-17T15:13:41.724Z,1.70
2023-05-17T15:16:09.853Z,1.75
2023-05-17T15:18:38.098Z,1.83
2023-05-17T15:21:07.481Z,2.00
2023-05-17T15:23:35.289Z,2.38
2023-05-17T15:26:03.361Z,1.90
2023-05-17T15:28:31.195Z,1.73
2023-05-17T15:31:03.003Z,2.05
2023-05-17T15:33:32.157Z,1.80
2023-05-17T15:36:00.185Z,1.70
2023-05-17T15:38:29.373Z,2.10
2023-05-17T15:41:03.796Z,2.53
2023-05-17T15:43:32.609Z,2.10
2023-05-17T15:46:00.756Z,3.45
2023-05-17T15:48:29.223Z,2.47
2023-05-17T15:50:57.546Z,2.80
2023-05-17T15:53:25.865Z,2.75
2023-05-17T15:55:55.315Z,2.03
2023-05-17T15:58:24.904Z,3.95
2023-05-17T16:00:52.802Z,2.20
2023-05-17T16:03:20.854Z,3.67
2023-05-17T16:05:48.949Z,3.13
2023-05-17T16:08:17.269Z,4.55
2023-05-17T16:10:46.001Z,2.15
2023-05-17T16:13:15.313Z,3.97
2023-05-17T16:15:43.258Z,6.90
2023-05-17T16:18:13.651Z,18.20
2023-05-17T16:20:41.699Z,13.52
2023-05-17T16:23:09.614Z,5.50
2023-05-17T16:25:37.643Z,3.58
2023-05-17T16:28:05.608Z,3.22
2023-05-17T16:30:34.968Z,3.45
2023-05-17T16:33:04.085Z,5.65
2023-05-17T16:35:32.857Z,3.15
2023-05-17T16:38:00.799Z,4.55
2023-05-17T16:40:29.311Z,3.05
2023-05-17T16:42:57.363Z,2.35
2023-05-17T16:45:25.320Z,2.30
2023-05-17T16:47:54.486Z,2.10
2023-05-17T16:50:22.366Z,2.97
2023-05-17T16:52:50.377Z,2.53
2023-05-17T16:55:18.259Z,1.95
2023-05-17T16:57:46.311Z,2.00
2023-05-17T17:00:15.351Z,2.25
2023-05-17T17:02:43.348Z,2.10
2023-05-17T17:05:12.704Z,2.03
2023-05-17T17:07:40.698Z,1.67
2023-05-17T17:10:09.355Z,2.25
2023-05-17T17:12:37.337Z,1.95
2023-05-17T17:15:07.831Z,2.10
2023-05-17T17:17:36.095Z,2.35
2023-05-17T17:20:05.452Z,2.40
2023-05-17T17:22:34.677Z,2.25
2023-05-17T17:25:02.585Z,2.17
2023-05-17T17:27:30.581Z,2.40
2023-05-17T17:29:58.439Z,2.55
2023-05-17T17:32:26.691Z,2.42
2023-05-17T17:34:54.650Z,2.28
2023-05-17T17:37:22.529Z,2.10
2023-05-17T17:39:51.885Z,2.00
2023-05-17T17:42:20.754Z,2.20
2023-05-17T17:44:48.802Z,2.10
2023-05-17T17:47:16.729Z,2.58
2023-05-17T17:49:44.703Z,2.05
2023-05-17T17:52:12.798Z,2.05
2023-05-17T17:54:40.718Z,2.58
2023-05-17T17:57:09.916Z,2.50
2023-05-17T17:59:37.780Z,2.20
2023-05-17T18:02:06.033Z,2.10
2023-05-17T18:04:33.996Z,2.67
2023-05-17T18:07:02.006Z,2.30
2023-05-17T18:09:30.047Z,2.05
2023-05-17T18:11:59.467Z,2.17
2023-05-17T18:14:28.732Z,1.92
2023-05-17T18:16:56.670Z,1.80
2023-05-17T18:19:24.796Z,2.20
2023-05-17T18:21:52.772Z,2.08
2023-05-17T18:24:20.842Z,2.10
2023-05-17T18:26:48.753Z,2.30
2023-05-17T18:29:16.686Z,2.88
2023-05-17T18:31:47.624Z,2.00
2023-05-17T18:34:15.717Z,2.13
2023-05-17T18:36:43.650Z,2.10
2023-05-17T18:39:11.643Z,2.00
2023-05-17T18:41:39.550Z,2.22
2023-05-17T18:44:07.458Z,2.00
2023-05-17T18:46:35.391Z,2.00
2023-05-17T18:49:05.445Z,1.60
2023-05-17T18:51:33.364Z,1.85
2023-05-17T18:54:01.206Z,1.58
2023-05-17T18:56:30.401Z,1.70
2023-05-17T18:58:58.406Z,1.73
2023-05-17T19:01:26.815Z,1.60
2023-05-17T19:03:56.320Z,1.60
2023-05-17T19:06:27.554Z,1.85
2023-05-17T19:08:58.055Z,1.20
2023-05-17T19:11:28.515Z,1.48
2023-05-17T19:13:56.526Z,2.03
2023-05-17T19:16:24.403Z,1.75
2023-05-17T19:18:52.447Z,1.42
2023-05-17T19:21:20.478Z,2.03
2023-05-17T19:23:50.021Z,1.85
2023-05-17T19:26:17.940Z,2.30
2023-05-17T19:28:46.457Z,1.83
2023-05-17T19:31:14.436Z,1.70
2023-05-17T19:33:42.354Z,1.40
2023-05-17T19:36:10.542Z,1.48
2023-05-17T19:38:38.362Z,2.30
2023-05-17T19:41:08.931Z,1.73
2023-05-17T19:43:37.006Z,2.05
2023-05-17T19:46:09.210Z,1.98
2023-05-17T19:48:37.530Z,1.65
2023-05-17T19:51:05.577Z,1.55
2023-05-17T19:53:50.845Z,2.15
2023-05-17T19:56:24.822Z,1.40
2023-05-17T19:58:54.091Z,1.63
2023-05-17T20:01:22.389Z,1.92
2023-05-17T20:03:50.981Z,2.10
2023-05-17T20:06:18.872Z,1.80
2023-05-17T20:08:47.554Z,1.70
2023-05-17T20:11:15.462Z,1.67
2023-05-17T20:13:44.668Z,1.88
2023-05-17T20:16:13.553Z,1.98
2023-05-17T20:18:43.084Z,2.13
2023-05-17T20:21:12.685Z,2.08
2023-05-17T20:23:40.949Z,2.00
2023-05-17T20:26:15.892Z,2.20
2023-05-17T20:28:45.810Z,2.22
2023-05-17T20:31:14.476Z,2.13
2023-05-17T20:33:44.078Z,1.80
2023-05-17T20:36:14.430Z,1.83
2023-05-17T20:38:43.221Z,2.15
2023-05-17T20:41:11.448Z,2.10
2023-05-17T20:43:39.695Z,2.28
2023-05-17T20:46:09.816Z,1.87
2023-05-17T20:48:38.921Z,2.10
2023-05-17T20:51:06.856Z,2.30
2023-05-17T20:53:34.668Z,1.83
2023-05-17T20:56:02.841Z,1.90
2023-05-17T20:58:30.995Z,2.17
2023-05-17T21:00:59.841Z,2.13
2023-05-17T21:03:33.238Z,2.00
2023-05-17T21:06:02.120Z,1.90
2023-05-17T21:08:30.054Z,2.67
2023-05-17T21:10:57.883Z,1.90
2023-05-17T21:13:26.417Z,1.90
2023-05-17T21:15:55.841Z,1.93
2023-05-17T21:18:24.342Z,2.83
2023-05-17T21:20:55.090Z,2.07
2023-05-17T21:23:23.020Z,1.80
2023-05-17T21:25:51.145Z,2.27
2023-05-17T21:28:19.141Z,2.00
2023-05-17T21:30:47.068Z,1.83
2023-05-17T21:33:14.885Z,2.43
2023-05-17T21:35:42.728Z,2.37
2023-05-17T21:38:12.101Z,1.67
2023-05-17T21:40:40.497Z,1.87
2023-05-17T21:43:09.730Z,2.43
2023-05-17T21:45:37.756Z,2.03
2023-05-17T21:48:06.313Z,2.47
2023-05-17T21:50:34.202Z,1.80
2023-05-17T21:53:02.145Z,1.80
2023-05-17T21:55:36.824Z,2.60
2023-05-17T21:58:08.945Z,2.20
2023-05-17T22:00:36.824Z,2.63
2023-05-17T22:03:05.043Z,1.77
2023-05-17T22:05:32.954Z,1.60
2023-05-17T22:08:01.165Z,2.13
2023-05-17T22:10:29.191Z,2.00
2023-05-17T22:12:58.653Z,2.10
2023-05-17T22:15:26.482Z,2.17
2023-05-17T22:17:54.433Z,1.80
2023-05-17T22:20:24.051Z,1.90
2023-05-17T22:22:52.165Z,2.30
2023-05-17T22:25:20.067Z,2.00
2023-05-17T22:27:48.165Z,1.60
2023-05-17T22:30:17.689Z,2.13
2023-05-17T22:32:45.632Z,2.07
2023-05-17T22:35:13.752Z,2.10
2023-05-17T22:37:42.615Z,2.30
2023-05-17T22:40:11.733Z,1.90
2023-05-17T22:42:39.597Z,2.00
2023-05-17T22:45:08.099Z,1.80
2023-05-17T22:47:42.288Z,2.10
2023-05-17T22:50:11.880Z,2.00
2023-05-17T22:52:41.202Z,1.83
2023-05-17T22:55:10.197Z,1.67
2023-05-17T22:57:38.343Z,2.53
2023-05-17T23:00:09.166Z,2.17
2023-05-17T23:02:38.481Z,1.77
2023-05-17T23:05:07.138Z,1.80
2023-05-17T23:07:38.174Z,2.50
2023-05-17T23:10:07.164Z,1.73
2023-05-17T23:12:35.998Z,1.80
2023-05-17T23:15:04.760Z,2.10
2023-05-17T23:17:33.286Z,2.17
2023-05-17T23:20:06.942Z,1.90
2023-05-17T23:22:34.905Z,2.37
2023-05-17T23:25:03.448Z,2.13
2023-05-17T23:27:31.449Z,2.33
2023-05-17T23:30:00.979Z,2.00
2023-05-17T23:32:32.318Z,2.20
2023-05-17T23:35:04.782Z,2.00
2023-05-17T23:37:34.673Z,1.97
2023-05-17T23:40:03.349Z,2.13
2023-05-17T23:42:31.716Z,2.20
2023-05-17T23:45:00.617Z,2.07
2023-05-17T23:47:29.050Z,1.87
2023-05-17T23:49:57.473Z,2.27
2023-05-17T23:52:25.339Z,1.80
2023-05-17T23:54:57.333Z,2.47
2023-05-17T23:57:25.329Z,1.80
2023-05-17T23:59:53.230Z,1.93
